createdAt,value
2022-12-05T00:01:19.452Z,-2.37
2022-12-05T00:03:48.075Z,-2.35
2022-12-05T00:06:15.252Z,-2.27
2022-12-05T00:08:42.030Z,-2.20
2022-12-05T00:11:26.864Z,-2.28
2022-12-05T00:13:55.582Z,-2.24
2022-12-05T00:16:24.692Z,-2.25
2022-12-05T00:18:52.175Z,-2.28
2022-12-05T00:21:25.738Z,-2.35
2022-12-05T00:23:54.898Z,-2.30
2022-12-05T00:26:21.809Z,-2.47
2022-12-05T00:28:49.308Z,-2.52
2022-12-05T00:31:19.325Z,-2.48
2022-12-05T00:33:47.037Z,-2.43
2022-12-05T00:36:19.994Z,-2.25
2022-12-05T00:38:46.762Z,-2.28
2022-12-05T00:41:15.937Z,-2.26
2022-12-05T00:43:43.210Z,-2.13
2022-12-05T00:46:12.775Z,-2.32
2022-12-05T00:48:40.163Z,-2.18
2022-12-05T00:51:10.457Z,-2.24
2022-12-05T00:53:37.186Z,-2.12
2022-12-05T00:56:06.322Z,-2.09
2022-12-05T00:58:34.117Z,-1.78
2022-12-05T01:01:09.247Z,-1.99
2022-12-05T01:03:36.099Z,-1.99
2022-12-05T01:06:03.703Z,-2.38
2022-12-05T01:08:30.422Z,-2.28
2022-12-05T01:10:58.203Z,-2.20
2022-12-05T01:13:26.651Z,-2.43
2022-12-05T01:15:53.661Z,-2.37
2022-12-05T01:18:22.490Z,-2.23
2022-12-05T01:20:49.661Z,-2.17
2022-12-05T01:23:16.903Z,-2.19
2022-12-05T01:25:46.516Z,-2.03
2022-12-05T01:28:14.322Z,-1.87
2022-12-05T01:30:43.577Z,-1.93
2022-12-05T01:33:11.407Z,-2.03
2022-12-05T01:35:39.717Z,-1.88
2022-12-05T01:38:06.978Z,-1.81
2022-12-05T01:40:34.802Z,-1.68
2022-12-05T01:43:02.280Z,-1.70
2022-12-05T01:45:36.661Z,-1.65
2022-12-05T01:48:07.511Z,-1.84
2022-12-05T01:50:35.332Z,-1.89
2022-12-05T01:53:04.030Z,-2.01
2022-12-05T01:55:31.222Z,-2.02
2022-12-05T01:57:59.145Z,-1.95
2022-12-05T02:00:26.123Z,-2.02
2022-12-05T02:02:57.274Z,-2.07
2022-12-05T02:05:35.512Z,-2.16
2022-12-05T02:08:08.271Z,-1.98
2022-12-05T02:10:40.069Z,-2.24
2022-12-05T02:13:31.032Z,-1.97
2022-12-05T02:16:11.915Z,-2.13
2022-12-05T02:18:49.411Z,-1.83
2022-12-05T02:21:31.400Z,-1.70
2022-12-05T02:24:26.876Z,-1.78
2022-12-05T02:26:59.615Z,-1.89
2022-12-05T02:30:04.690Z,-2.01
2022-12-05T02:32:40.214Z,-1.95
2022-12-05T02:35:25.043Z,-1.86
2022-12-05T02:38:21.003Z,-1.90
2022-12-05T02:40:56.266Z,-1.84
2022-12-05T02:43:42.918Z,-1.91
2022-12-05T02:46:14.521Z,-2.10
2022-12-05T02:48:45.324Z,-2.06
2022-12-05T02:51:14.844Z,-1.90
2022-12-05T02:53:44.300Z,-1.89
2022-12-05T02:56:12.376Z,-2.08
2022-12-05T02:58:59.353Z,-2.18
2022-12-05T03:01:30.079Z,-2.10
2022-12-05T03:03:59.553Z,-2.16
2022-12-05T03:06:37.515Z,-2.06
2022-12-05T03:09:13.026Z,-2.09
2022-12-05T03:11:50.858Z,-2.17
2022-12-05T03:14:23.211Z,-2.10
2022-12-05T03:16:53.858Z,-2.24
2022-12-05T03:19:29.083Z,-2.36
2022-12-05T03:22:23.870Z,-2.26
2022-12-05T03:24:51.054Z,-2.11
2022-12-05T03:27:44.087Z,-1.88
2022-12-05T03:30:14.392Z,-1.87
2022-12-05T03:32:56.300Z,-1.91
2022-12-05T03:35:30.028Z,-2.03
2022-12-05T03:38:01.262Z,-1.96
2022-12-05T03:40:55.991Z,-2.00
2022-12-05T03:43:27.083Z,-2.05
2022-12-05T03:46:18.544Z,-1.89
2022-12-05T03:48:54.607Z,-1.88
2022-12-05T03:51:27.489Z,-2.00
2022-12-05T03:54:20.094Z,-1.83
2022-12-05T03:56:54.657Z,-1.64
2022-12-05T03:59:34.615Z,-1.43
2022-12-05T04:02:08.764Z,-1.31
2022-12-05T04:04:39.849Z,-1.19
2022-12-05T04:07:08.946Z,-1.10
2022-12-05T04:09:43.694Z,-1.10
2022-12-05T04:12:17.539Z,-1.00
2022-12-05T04:14:48.350Z,-0.95
2022-12-05T04:17:21.002Z,-0.91
2022-12-05T04:20:00.358Z,-1.16
2022-12-05T04:22:28.086Z,-0.90
2022-12-05T04:24:56.955Z,-0.86
2022-12-05T04:27:34.073Z,-0.80
2022-12-05T04:30:22.146Z,-0.77
2022-12-05T04:33:13.635Z,-0.86
2022-12-05T04:35:43.612Z,-0.89
2022-12-05T04:38:39.428Z,-0.86
2022-12-05T04:41:10.519Z,-0.83
2022-12-05T04:43:41.879Z,-0.79
2022-12-05T04:46:11.768Z,-0.85
2022-12-05T04:48:40.826Z,-0.99
2022-12-05T04:51:13.783Z,-1.10
2022-12-05T04:53:44.053Z,-1.10
2022-12-05T04:56:16.463Z,-1.14
2022-12-05T04:58:43.210Z,-1.15
2022-12-05T05:01:13.053Z,-1.05
2022-12-05T05:03:44.886Z,-0.96
2022-12-05T05:06:13.031Z,-1.04
2022-12-05T05:08:48.714Z,-1.12
2022-12-05T05:11:19.564Z,-1.12
2022-12-05T05:13:46.749Z,-1.12
2022-12-05T05:16:22.063Z,-0.99
2022-12-05T05:18:49.674Z,-0.86
2022-12-05T05:21:26.259Z,-0.78
2022-12-05T05:23:53.428Z,-0.75
2022-12-05T05:26:20.844Z,-0.74
2022-12-05T05:28:50.673Z,-0.80
2022-12-05T05:31:19.237Z,-0.73
2022-12-05T05:40:49.356Z,-0.82
2022-12-05T05:43:15.950Z,-0.81
2022-12-05T05:45:42.617Z,-0.74
2022-12-05T05:48:09.199Z,-0.70
2022-12-05T05:50:36.721Z,-0.68
2022-12-05T05:53:10.952Z,-0.70
2022-12-05T05:55:41.486Z,-0.82
2022-12-05T05:58:09.192Z,-0.76
2022-12-05T06:00:35.902Z,-0.74
2022-12-05T06:06:49.554Z,-0.66
2022-12-05T06:09:21.463Z,-0.66
2022-12-05T06:11:48.035Z,-0.65
2022-12-05T06:14:18.497Z,-0.66
2022-12-05T06:16:50.377Z,-0.70
2022-12-05T06:19:16.999Z,-0.67
2022-12-05T06:21:43.659Z,-0.64
2022-12-05T06:24:10.235Z,-0.59
2022-12-05T06:26:36.901Z,-0.59
2022-12-05T06:29:03.588Z,-0.56
2022-12-05T06:31:30.309Z,-0.54
2022-12-05T06:34:00.617Z,-0.53
2022-12-05T06:36:27.448Z,-0.55
2022-12-05T06:38:54.036Z,-0.54
2022-12-05T06:41:21.189Z,-0.59
2022-12-05T06:43:48.175Z,-0.54
2022-12-05T06:46:16.230Z,-0.56
2022-12-05T06:48:43.062Z,-0.60
2022-12-05T06:51:12.712Z,-0.61
2022-12-05T06:53:39.700Z,-0.80
2022-12-05T06:56:09.716Z,-0.68
2022-12-05T06:58:36.801Z,-0.64
2022-12-05T07:01:03.878Z,-0.65
2022-12-05T07:03:30.530Z,-0.57
2022-12-05T07:06:01.097Z,-0.63
2022-12-05T07:08:27.807Z,-0.55
2022-12-05T07:10:54.614Z,-0.61
2022-12-05T07:13:21.454Z,-0.52
2022-12-05T07:15:48.733Z,-0.47
2022-12-05T07:18:16.449Z,-0.45
2022-12-05T07:21:10.777Z,-0.44
2022-12-05T07:23:30.767Z,-0.61
2022-12-05T07:25:57.398Z,-0.45
2022-12-05T07:28:24.892Z,-0.48
2022-12-05T07:31:08.881Z,-0.45
2022-12-05T07:33:36.614Z,-0.47
2022-12-05T07:36:15.502Z,-0.48
2022-12-05T07:38:42.895Z,-0.48
2022-12-05T07:41:21.659Z,-0.44
2022-12-05T07:43:48.420Z,-0.42
2022-12-05T07:46:15.145Z,-0.41
2022-12-05T07:48:41.863Z,-0.42
2022-12-05T07:51:09.320Z,-0.45
2022-12-05T07:53:40.225Z,-0.42
2022-12-05T07:56:09.302Z,-0.47
2022-12-05T07:58:36.485Z,-0.49
2022-12-05T08:01:11.807Z,-0.40
2022-12-05T08:03:39.065Z,-0.35
2022-12-05T08:06:10.741Z,-0.38
2022-12-05T08:08:38.099Z,-0.34
2022-12-05T08:11:13.297Z,-0.60
2022-12-05T08:13:40.492Z,-0.36
2022-12-05T08:16:10.668Z,-0.31
2022-12-05T08:18:37.775Z,-0.46
2022-12-05T08:21:13.394Z,-0.36
2022-12-05T08:23:40.678Z,-0.42
2022-12-05T08:26:16.074Z,-0.32
2022-12-05T08:28:44.114Z,-0.25
2022-12-05T08:31:13.562Z,-0.21
2022-12-05T08:33:40.895Z,-0.36
2022-12-05T08:36:09.814Z,-0.38
2022-12-05T08:38:36.715Z,-0.26
2022-12-05T08:41:05.284Z,-0.17
2022-12-05T08:43:32.588Z,-0.13
2022-12-05T08:46:00.381Z,-0.09
2022-12-05T08:48:29.657Z,-0.22
2022-12-05T08:50:57.329Z,-0.02
2022-12-05T08:53:24.644Z,-0.03
2022-12-05T08:55:51.555Z,-0.01
2022-12-05T08:58:18.284Z,0.05
2022-12-05T09:00:44.865Z,0.05
2022-12-05T09:03:12.276Z,-0.16
2022-12-05T09:05:39.286Z,-0.19
2022-12-05T09:08:06.129Z,-0.11
2022-12-05T09:10:32.860Z,-0.00
2022-12-05T09:12:59.632Z,0.03
2022-12-05T09:15:26.328Z,0.10
2022-12-05T09:17:53.131Z,0.07
2022-12-05T09:20:19.978Z,0.09
2022-12-05T09:22:49.761Z,-0.01
2022-12-05T09:25:16.447Z,-0.09
2022-12-05T09:27:43.149Z,0.04
2022-12-05T09:30:10.154Z,0.03
2022-12-05T09:32:37.425Z,0.05
2022-12-05T09:35:04.252Z,0.12
2022-12-05T09:37:39.150Z,0.15
2022-12-05T09:40:07.851Z,0.23
2022-12-05T09:42:53.197Z,0.25
2022-12-05T09:45:35.523Z,0.31
2022-12-05T09:48:11.149Z,0.25
2022-12-05T09:50:45.924Z,0.27
2022-12-05T09:53:32.342Z,0.31
2022-12-05T09:56:30.327Z,0.33
2022-12-05T09:58:59.097Z,0.28
2022-12-05T10:01:40.775Z,0.34
2022-12-05T10:04:13.649Z,0.38
2022-12-05T10:06:47.907Z,0.31
2022-12-05T10:09:36.474Z,0.36
2022-12-05T10:12:18.017Z,0.30
2022-12-05T10:15:36.107Z,0.38
2022-12-05T10:18:10.932Z,0.41
2022-12-05T10:21:06.396Z,0.42
2022-12-05T10:23:59.132Z,0.32
2022-12-05T10:26:32.459Z,0.30
2022-12-05T10:29:11.614Z,0.33
2022-12-05T10:31:39.908Z,0.37
2022-12-05T10:34:27.851Z,0.39
2022-12-05T10:37:03.022Z,0.41
2022-12-05T10:39:29.864Z,0.46
2022-12-05T10:41:56.474Z,0.46
2022-12-05T10:44:26.325Z,0.48
2022-12-05T10:46:53.143Z,0.46
2022-12-05T10:49:20.746Z,0.46
2022-12-05T10:51:48.186Z,0.42
2022-12-05T10:54:19.344Z,0.42
2022-12-05T10:56:51.889Z,0.40
2022-12-05T10:59:25.531Z,0.34
2022-12-05T11:01:55.325Z,0.35
2022-12-05T11:04:32.508Z,0.33
2022-12-05T11:07:05.171Z,0.27
2022-12-05T11:09:47.897Z,0.35
2022-12-05T11:12:20.595Z,0.30
2022-12-05T11:14:56.443Z,0.11
2022-12-05T11:17:30.373Z,0.35
2022-12-05T11:19:57.127Z,0.10
2022-12-05T11:22:36.363Z,0.23
2022-12-05T11:25:28.445Z,0.27
2022-12-05T11:28:00.991Z,0.28
2022-12-05T11:30:29.545Z,0.28
2022-12-05T11:33:11.931Z,0.28
2022-12-05T11:35:39.738Z,0.39
2022-12-05T11:38:06.979Z,0.42
2022-12-05T11:40:53.088Z,0.42
2022-12-05T11:43:47.196Z,0.34
2022-12-05T11:46:32.072Z,0.30
2022-12-05T11:49:37.930Z,0.35
2022-12-05T11:52:19.651Z,0.50
2022-12-05T11:55:07.412Z,0.47
2022-12-05T11:58:03.182Z,0.12
2022-12-05T12:00:48.128Z,0.03
2022-12-05T12:03:32.598Z,0.21
2022-12-05T12:06:32.107Z,0.37
2022-12-05T12:09:01.535Z,0.42
2022-12-05T12:11:55.378Z,0.14
2022-12-05T12:14:26.956Z,0.37
2022-12-05T12:17:02.163Z,0.28
2022-12-05T12:19:47.823Z,0.37
2022-12-05T12:22:38.699Z,0.33
2022-12-05T12:25:41.551Z,0.35
2022-12-05T12:28:29.177Z,0.44
2022-12-05T12:31:24.472Z,0.50
2022-12-05T12:34:04.228Z,0.55
2022-12-05T12:36:33.701Z,0.51
2022-12-05T12:39:28.016Z,0.59
2022-12-05T12:42:00.745Z,0.48
2022-12-05T12:44:51.847Z,0.48
2022-12-05T12:47:31.190Z,0.42
2022-12-05T12:50:00.620Z,0.41
2022-12-05T12:52:39.645Z,0.44
2022-12-05T12:55:35.307Z,0.53
2022-12-05T12:58:23.928Z,0.51
2022-12-05T13:01:09.004Z,0.53
2022-12-05T13:03:51.866Z,0.65
2022-12-05T13:06:26.886Z,0.66
2022-12-05T13:08:59.827Z,0.70
2022-12-05T13:11:33.706Z,0.68
2022-12-05T13:14:02.369Z,0.65
2022-12-05T13:16:44.018Z,0.49
2022-12-05T13:19:31.463Z,0.67
2022-12-05T13:21:59.288Z,0.55
2022-12-05T13:24:28.384Z,0.57
2022-12-05T13:27:00.218Z,0.48
2022-12-05T13:29:52.242Z,0.44
2022-12-05T13:32:29.938Z,0.30
2022-12-05T13:35:21.133Z,0.52
2022-12-05T13:37:48.729Z,0.70
2022-12-05T13:40:34.516Z,0.77
2022-12-05T13:43:03.321Z,0.77
2022-12-05T13:45:30.568Z,0.79
2022-12-05T13:47:59.980Z,0.70
2022-12-05T13:50:51.533Z,0.69
2022-12-05T13:53:42.648Z,0.73
2022-12-05T13:56:12.496Z,0.78
2022-12-05T13:58:50.070Z,0.60
2022-12-05T14:01:26.105Z,0.80
2022-12-05T14:03:59.186Z,0.72
2022-12-05T14:06:34.853Z,0.73
2022-12-05T14:09:19.517Z,0.74
2022-12-05T14:12:10.868Z,0.61
2022-12-05T14:14:55.669Z,0.71
2022-12-05T14:17:26.953Z,0.68
2022-12-05T14:19:59.731Z,0.61
2022-12-05T14:22:33.419Z,0.63
2022-12-05T14:25:18.606Z,0.68
2022-12-05T14:28:16.889Z,0.69
2022-12-05T14:31:11.693Z,0.65
2022-12-05T14:33:38.777Z,0.56
2022-12-05T14:36:16.745Z,0.59
2022-12-05T14:38:44.642Z,0.65
2022-12-05T14:41:12.986Z,0.50
2022-12-05T14:43:41.395Z,0.46
2022-12-05T14:46:25.230Z,0.54
2022-12-05T14:48:52.230Z,0.30
2022-12-05T14:51:30.770Z,0.40
2022-12-05T14:54:11.822Z,0.52
2022-12-05T14:56:52.466Z,0.64
2022-12-05T14:59:36.545Z,0.53
2022-12-05T15:02:03.927Z,0.61
2022-12-05T15:04:41.580Z,0.67
2022-12-05T15:07:12.925Z,0.72
2022-12-05T15:09:50.560Z,0.74
2022-12-05T15:12:44.532Z,0.77
2022-12-05T15:15:20.878Z,0.51
2022-12-05T15:17:55.891Z,0.65
2022-12-05T15:20:41.740Z,0.61
2022-12-05T15:23:45.848Z,0.65
2022-12-05T15:29:25.443Z,0.64
2022-12-05T15:32:04.237Z,0.68
2022-12-05T15:34:31.105Z,0.67
2022-12-05T15:37:11.174Z,0.48
2022-12-05T15:39:49.798Z,0.55
2022-12-05T15:42:16.643Z,0.53
2022-12-05T15:44:43.235Z,0.41
2022-12-05T15:47:20.610Z,0.50
2022-12-05T15:49:47.572Z,0.54
2022-12-05T15:52:33.035Z,0.50
2022-12-05T15:55:07.664Z,0.60
2022-12-05T15:57:58.704Z,0.71
2022-12-05T16:00:26.133Z,0.77
2022-12-05T16:03:00.736Z,0.67
2022-12-05T16:05:41.610Z,0.80
2022-12-05T16:08:08.932Z,0.79
2022-12-05T16:10:36.590Z,0.80
2022-12-05T16:13:14.924Z,0.76
2022-12-05T16:15:53.211Z,0.83
2022-12-05T16:18:31.431Z,0.64
2022-12-05T16:20:58.491Z,0.81
2022-12-05T16:23:30.356Z,0.85
2022-12-05T16:26:16.052Z,0.88
2022-12-05T16:28:42.735Z,0.83
2022-12-05T16:31:15.343Z,0.82
2022-12-05T16:33:43.984Z,0.80
2022-12-05T16:36:12.434Z,0.77
2022-12-05T16:38:40.162Z,0.78
2022-12-05T16:41:08.280Z,0.78
2022-12-05T16:43:34.887Z,0.71
2022-12-05T16:46:13.864Z,0.74
2022-12-05T16:49:21.087Z,0.69
2022-12-05T16:52:15.591Z,0.71
2022-12-05T16:54:45.020Z,0.60
2022-12-05T16:57:16.671Z,0.55
2022-12-05T16:59:44.080Z,0.56
2022-12-05T17:02:13.898Z,0.43
2022-12-05T17:04:41.681Z,0.51
2022-12-05T17:07:09.086Z,0.27
2022-12-05T17:09:35.866Z,0.57
2022-12-05T17:12:18.683Z,0.53
2022-12-05T17:14:46.163Z,0.56
2022-12-05T17:17:14.436Z,0.46
2022-12-05T17:19:41.140Z,0.24
2022-12-05T17:22:12.663Z,0.31
2022-12-05T17:24:39.286Z,0.25
2022-12-05T17:27:09.320Z,0.34
2022-12-05T17:29:36.141Z,0.43
2022-12-05T17:32:03.361Z,0.32
2022-12-05T17:34:30.360Z,0.35
2022-12-05T17:36:57.093Z,0.28
2022-12-05T17:39:28.394Z,0.38
2022-12-05T17:41:56.125Z,0.18
2022-12-05T17:44:22.856Z,0.24
2022-12-05T17:46:49.600Z,0.33
2022-12-05T17:49:16.600Z,-0.05
2022-12-05T17:52:05.391Z,0.23
2022-12-05T17:54:30.802Z,0.27
2022-12-05T17:56:57.385Z,0.10
2022-12-05T17:59:24.066Z,0.22
2022-12-05T18:01:50.707Z,0.18
2022-12-05T18:04:22.693Z,0.21
2022-12-05T18:06:50.066Z,-0.28
2022-12-05T18:09:16.773Z,0.06
2022-12-05T18:11:43.701Z,0.09
2022-12-05T18:14:10.309Z,0.03
2022-12-05T18:16:37.132Z,0.11
2022-12-05T18:19:03.871Z,0.29
2022-12-05T18:21:30.548Z,0.13
2022-12-05T18:23:57.180Z,0.22
2022-12-05T18:26:23.891Z,0.25
2022-12-05T18:28:51.458Z,0.37
2022-12-05T18:31:18.495Z,0.28
2022-12-05T18:33:46.742Z,0.31
2022-12-05T18:36:16.283Z,0.41
2022-12-05T18:38:44.003Z,0.43
2022-12-05T18:41:10.702Z,0.52
2022-12-05T18:43:37.302Z,0.51
2022-12-05T18:46:05.216Z,0.51
2022-12-05T18:48:43.725Z,0.57
2022-12-05T18:51:19.677Z,0.51
2022-12-05T18:53:48.325Z,0.44
2022-12-05T18:56:23.736Z,0.41
2022-12-05T18:59:00.224Z,0.55
2022-12-05T19:01:27.936Z,0.36
2022-12-05T19:03:56.481Z,0.38
2022-12-05T19:06:26.127Z,0.51
2022-12-05T19:08:54.715Z,0.36
2022-12-05T19:11:21.390Z,0.41
2022-12-05T19:13:48.053Z,0.41
2022-12-05T19:16:16.138Z,0.49
2022-12-05T19:18:43.237Z,0.19
2022-12-05T19:21:10.336Z,0.41
2022-12-05T19:23:37.066Z,0.37
2022-12-05T19:26:07.638Z,0.32
2022-12-05T19:28:36.642Z,0.53
2022-12-05T19:31:09.908Z,0.55
2022-12-05T19:33:41.858Z,0.63
2022-12-05T19:36:13.871Z,0.61
2022-12-05T19:38:42.839Z,0.68
2022-12-05T19:41:12.169Z,0.75
2022-12-05T19:43:39.406Z,0.73
2022-12-05T19:46:08.660Z,0.75
2022-12-05T19:48:35.568Z,0.67
2022-12-05T19:51:02.425Z,0.68
2022-12-05T19:53:31.810Z,0.64
2022-12-05T19:56:04.005Z,0.75
2022-12-05T19:58:35.968Z,0.78
2022-12-05T20:01:17.767Z,0.75
2022-12-05T20:03:48.669Z,0.60
2022-12-05T20:06:16.069Z,0.27
2022-12-05T20:08:42.868Z,0.56
2022-12-05T20:11:12.825Z,0.62
2022-12-05T20:13:48.210Z,0.76
2022-12-05T20:16:17.249Z,0.74
2022-12-05T20:18:43.920Z,0.79
2022-12-05T20:21:13.579Z,0.83
2022-12-05T20:23:40.509Z,0.89
2022-12-05T20:26:13.592Z,0.63
2022-12-05T20:28:40.844Z,0.89
2022-12-05T20:31:12.668Z,0.90
2022-12-05T20:33:39.771Z,0.91
2022-12-05T20:36:08.977Z,0.93
2022-12-05T20:38:35.932Z,0.89
2022-12-05T20:41:05.569Z,0.83
2022-12-05T20:43:32.386Z,0.72
2022-12-05T20:46:16.353Z,0.75
2022-12-05T20:48:43.882Z,0.77
2022-12-05T20:51:25.282Z,0.86
2022-12-05T20:53:52.689Z,0.86
2022-12-05T20:56:22.303Z,0.89
2022-12-05T20:58:51.464Z,0.91
2022-12-05T21:01:19.708Z,0.89
2022-12-05T21:03:49.066Z,0.90
2022-12-05T21:06:18.150Z,0.86
2022-12-05T21:08:44.818Z,0.89
2022-12-05T21:11:12.396Z,0.83
2022-12-05T21:13:39.858Z,0.88
2022-12-05T21:16:13.230Z,0.89
2022-12-05T21:18:40.640Z,0.92
2022-12-05T21:21:11.363Z,0.96
2022-12-05T21:23:38.040Z,0.98
2022-12-05T21:26:11.682Z,1.00
2022-12-05T21:28:38.836Z,1.00
2022-12-05T21:31:11.395Z,1.00
2022-12-05T21:33:38.982Z,1.00
2022-12-05T21:36:07.197Z,0.98
2022-12-05T21:38:33.990Z,1.00
2022-12-05T21:41:01.931Z,1.01
2022-12-05T21:43:29.538Z,1.02
2022-12-05T21:45:56.225Z,1.00
2022-12-05T21:48:25.546Z,0.99
2022-12-05T21:50:53.755Z,1.01
2022-12-05T21:53:21.215Z,1.02
2022-12-05T21:55:47.885Z,1.02
2022-12-05T21:58:14.706Z,1.02
2022-12-05T22:00:42.455Z,1.03
2022-12-05T22:03:13.907Z,1.02
2022-12-05T22:05:40.765Z,0.95
2022-12-05T22:08:07.419Z,0.89
2022-12-05T22:10:38.266Z,0.99
2022-12-05T22:13:05.151Z,0.96
2022-12-05T22:15:31.784Z,0.96
2022-12-05T22:17:58.424Z,0.94
2022-12-05T22:20:25.012Z,0.95
2022-12-05T22:22:51.687Z,0.99
2022-12-05T22:25:18.354Z,1.00
2022-12-05T22:27:45.036Z,1.01
2022-12-05T22:30:11.937Z,1.00
2022-12-05T22:32:38.692Z,0.99
2022-12-05T22:35:05.446Z,1.02
2022-12-05T22:37:32.098Z,1.02
2022-12-05T22:39:59.031Z,1.03
2022-12-05T22:42:26.976Z,0.99
2022-12-05T22:44:53.559Z,0.84
2022-12-05T22:47:20.682Z,0.63
2022-12-05T22:49:47.444Z,0.69
2022-12-05T22:52:14.218Z,0.54
2022-12-05T22:54:40.909Z,0.58
2022-12-05T22:57:07.548Z,0.47
2022-12-05T22:59:34.134Z,0.51
2022-12-05T23:02:00.815Z,0.44
2022-12-05T23:04:27.539Z,0.22
2022-12-05T23:06:54.217Z,0.33
2022-12-05T23:09:20.917Z,0.37
2022-12-05T23:11:49.426Z,0.23
2022-12-05T23:14:16.057Z,0.32
2022-12-05T23:16:42.804Z,0.47
2022-12-05T23:19:09.609Z,0.32
2022-12-05T23:21:39.522Z,0.36
2022-12-05T23:24:11.715Z,0.54
2022-12-05T23:26:42.013Z,0.49
2022-12-05T23:29:10.178Z,0.48
2022-12-05T23:31:36.944Z,0.63
2022-12-05T23:34:04.378Z,0.56
2022-12-05T23:36:32.595Z,0.70
2022-12-05T23:38:59.927Z,0.71
2022-12-05T23:41:26.531Z,0.75
2022-12-05T23:43:53.707Z,0.66
2022-12-05T23:46:23.885Z,0.65
2022-12-05T23:48:51.130Z,0.70
2022-12-05T23:51:23.555Z,0.81
2022-12-05T23:53:56.128Z,0.74
2022-12-05T23:56:25.697Z,0.79
2022-12-05T23:58:53.618Z,0.79
